sensor_id;sensor_type;location;lat;lon;timestamp;temperature;humidity
69543;SHT31;56762;49.494;11.768;2023-03-01T00:01:17;-1.27;75.90
69543;SHT31;56762;49.494;11.768;2023-03-01T00:03:45;-1.21;75.69
69543;SHT31;56762;49.494;11.768;2023-03-01T00:06:14;-1.21;75.61
69543;SHT31;56762;49.494;11.768;2023-03-01T00:08:43;-1.27;76.09
69543;SHT31;56762;49.494;11.768;2023-03-01T00:11:14;-1.25;76.15
69543;SHT31;56762;49.494;11.768;2023-03-01T00:13:44;-1.30;76.15
69543;SHT31;56762;49.494;11.768;2023-03-01T00:16:14;-1.40;76.26
69543;SHT31;56762;49.494;11.768;2023-03-01T00:18:42;-1.41;75.96
69543;SHT31;56762;49.494;11.768;2023-03-01T00:21:10;-1.41;76.36
69543;SHT31;56762;49.494;11.768;2023-03-01T00:23:39;-1.43;76.01
69543;SHT31;56762;49.494;11.768;2023-03-01T00:26:10;-1.40;76.31
69543;SHT31;56762;49.494;11.768;2023-03-01T00:28:39;-1.35;76.11
69543;SHT31;56762;49.494;11.768;2023-03-01T00:31:08;-1.33;75.82
69543;SHT31;56762;49.494;11.768;2023-03-01T00:33:36;-1.33;75.88
69543;SHT31;56762;49.494;11.768;2023-03-01T00:36:05;-1.43;75.97
69543;SHT31;56762;49.494;11.768;2023-03-01T00:38:34;-1.45;76.31
69543;SHT31;56762;49.494;11.768;2023-03-01T00:41:04;-1.50;76.97
69543;SHT31;56762;49.494;11.768;2023-03-01T00:43:34;-1.52;76.30
69543;SHT31;56762;49.494;11.768;2023-03-01T00:46:03;-1.55;77.05
69543;SHT31;56762;49.494;11.768;2023-03-01T00:48:32;-1.64;77.08
69543;SHT31;56762;49.494;11.768;2023-03-01T00:51:04;-1.68;77.25
69543;SHT31;56762;49.494;11.768;2023-03-01T00:53:33;-1.68;77.81
69543;SHT31;56762;49.494;11.768;2023-03-01T00:56:01;-1.64;77.21
69543;SHT31;56762;49.494;11.768;2023-03-01T00:58:29;-1.68;77.07
69543;SHT31;56762;49.494;11.768;2023-03-01T01:00:59;-1.72;77.35
69543;SHT31;56762;49.494;11.768;2023-03-01T01:03:28;-1.75;77.50
69543;SHT31;56762;49.494;11.768;2023-03-01T01:05:56;-1.78;77.23
69543;SHT31;56762;49.494;11.768;2023-03-01T01:08:24;-1.78;78.25
69543;SHT31;56762;49.494;11.768;2023-03-01T01:10:52;-1.79;77.81
69543;SHT31;56762;49.494;11.768;2023-03-01T01:13:20;-1.78;77.27
69543;SHT31;56762;49.494;11.768;2023-03-01T01:15:47;-1.75;77.65
69543;SHT31;56762;49.494;11.768;2023-03-01T01:18:17;-1.81;77.73
69543;SHT31;56762;49.494;11.768;2023-03-01T01:20:45;-1.83;77.56
69543;SHT31;56762;49.494;11.768;2023-03-01T01:23:13;-1.76;77.85
69543;SHT31;56762;49.494;11.768;2023-03-01T01:25:41;-1.65;76.84
69543;SHT31;56762;49.494;11.768;2023-03-01T01:28:09;-1.61;76.64
69543;SHT31;56762;49.494;11.768;2023-03-01T01:30:36;-1.61;76.46
69543;SHT31;56762;49.494;11.768;2023-03-01T01:33:04;-1.56;75.99
69543;SHT31;56762;49.494;11.768;2023-03-01T01:35:34;-1.58;75.80
69543;SHT31;56762;49.494;11.768;2023-03-01T01:38:02;-1.56;76.23
69543;SHT31;56762;49.494;11.768;2023-03-01T01:40:30;-1.65;76.74
69543;SHT31;56762;49.494;11.768;2023-03-01T01:42:58;-1.64;76.62
69543;SHT31;56762;49.494;11.768;2023-03-01T01:45:29;-1.59;75.90
69543;SHT31;56762;49.494;11.768;2023-03-01T01:48:00;-1.59;75.95
69543;SHT31;56762;49.494;11.768;2023-03-01T01:50:31;-1.59;76.77
69543;SHT31;56762;49.494;11.768;2023-03-01T01:53:09;-1.59;76.52
69543;SHT31;56762;49.494;11.768;2023-03-01T01:55:41;-1.54;75.89
69543;SHT31;56762;49.494;11.768;2023-03-01T01:58:11;-1.47;75.04
69543;SHT31;56762;49.494;11.768;2023-03-01T02:00:40;-1.38;74.92
69543;SHT31;56762;49.494;11.768;2023-03-01T02:03:12;-1.30;74.90
69543;SHT31;56762;49.494;11.768;2023-03-01T02:05:44;-1.28;74.75
69543;SHT31;56762;49.494;11.768;2023-03-01T02:08:25;-1.27;74.51
69543;SHT31;56762;49.494;11.768;2023-03-01T02:10:54;-1.30;74.13
69543;SHT31;56762;49.494;11.768;2023-03-01T02:13:23;-1.25;74.41
69543;SHT31;56762;49.494;11.768;2023-03-01T02:15:51;-1.27;74.55
69543;SHT31;56762;49.494;11.768;2023-03-01T02:18:21;-1.18;73.97
69543;SHT31;56762;49.494;11.768;2023-03-01T02:21:00;-1.14;73.84
69543;SHT31;56762;49.494;11.768;2023-03-01T02:23:32;-1.11;73.69
69543;SHT31;56762;49.494;11.768;2023-03-01T02:26:05;-1.17;73.62
69543;SHT31;56762;49.494;11.768;2023-03-01T02:28:36;-1.23;73.64
69543;SHT31;56762;49.494;11.768;2023-03-01T02:31:05;-1.24;73.29
69543;SHT31;56762;49.494;11.768;2023-03-01T02:33:52;-1.25;74.25
69543;SHT31;56762;49.494;11.768;2023-03-01T02:36:24;-1.30;73.77
69543;SHT31;56762;49.494;11.768;2023-03-01T02:38:56;-1.34;74.54
69543;SHT31;56762;49.494;11.768;2023-03-01T02:41:28;-1.37;74.03
69543;SHT31;56762;49.494;11.768;2023-03-01T02:43:59;-1.40;74.23
69543;SHT31;56762;49.494;11.768;2023-03-01T02:46:27;-1.40;74.59
69543;SHT31;56762;49.494;11.768;2023-03-01T02:48:58;-1.37;73.64
69543;SHT31;56762;49.494;11.768;2023-03-01T02:51:38;-1.34;74.11
69543;SHT31;56762;49.494;11.768;2023-03-01T02:54:15;-1.40;74.10
69543;SHT31;56762;49.494;11.768;2023-03-01T02:56:46;-1.44;74.07
69543;SHT31;56762;49.494;11.768;2023-03-01T02:59:18;-1.48;74.54
69543;SHT31;56762;49.494;11.768;2023-03-01T03:01:47;-1.50;74.39
69543;SHT31;56762;49.494;11.768;2023-03-01T03:04:17;-1.55;74.84
69543;SHT31;56762;49.494;11.768;2023-03-01T03:06:45;-1.54;74.83
69543;SHT31;56762;49.494;11.768;2023-03-01T03:09:14;-1.58;74.90
69543;SHT31;56762;49.494;11.768;2023-03-01T03:11:43;-1.64;74.67
69543;SHT31;56762;49.494;11.768;2023-03-01T03:14:13;-1.72;75.66
69543;SHT31;56762;49.494;11.768;2023-03-01T03:16:44;-1.69;75.57
69543;SHT31;56762;49.494;11.768;2023-03-01T03:19:12;-1.65;75.21
69543;SHT31;56762;49.494;11.768;2023-03-01T03:21:40;-1.64;75.44
69543;SHT31;56762;49.494;11.768;2023-03-01T03:24:09;-1.58;74.67
69543;SHT31;56762;49.494;11.768;2023-03-01T03:26:36;-1.64;74.92
69543;SHT31;56762;49.494;11.768;2023-03-01T03:29:04;-1.61;74.76
69543;SHT31;56762;49.494;11.768;2023-03-01T03:31:33;-1.59;74.58
69543;SHT31;56762;49.494;11.768;2023-03-01T03:34:03;-1.62;74.61
69543;SHT31;56762;49.494;11.768;2023-03-01T03:36:31;-1.55;74.53
69543;SHT31;56762;49.494;11.768;2023-03-01T03:38:58;-1.51;74.08
69543;SHT31;56762;49.494;11.768;2023-03-01T03:41:26;-1.50;74.33
69543;SHT31;56762;49.494;11.768;2023-03-01T03:43:54;-1.55;74.72
69543;SHT31;56762;49.494;11.768;2023-03-01T03:46:22;-1.59;74.29
69543;SHT31;56762;49.494;11.768;2023-03-01T03:48:50;-1.64;74.79
69543;SHT31;56762;49.494;11.768;2023-03-01T03:51:19;-1.71;74.96
69543;SHT31;56762;49.494;11.768;2023-03-01T03:53:49;-1.74;74.70
69543;SHT31;56762;49.494;11.768;2023-03-01T03:56:17;-1.79;75.08
69543;SHT31;56762;49.494;11.768;2023-03-01T03:58:44;-1.78;75.46
69543;SHT31;56762;49.494;11.768;2023-03-01T04:01:12;-1.78;75.20
69543;SHT31;56762;49.494;11.768;2023-03-01T04:03:40;-1.79;74.99
69543;SHT31;56762;49.494;11.768;2023-03-01T04:06:13;-1.81;75.43
69543;SHT31;56762;49.494;11.768;2023-03-01T04:08:43;-1.78;75.10
69543;SHT31;56762;49.494;11.768;2023-03-01T04:11:11;-1.74;75.18
69543;SHT31;56762;49.494;11.768;2023-03-01T04:13:55;-1.78;75.41
69543;SHT31;56762;49.494;11.768;2023-03-01T04:16:24;-1.75;75.29
69543;SHT31;56762;49.494;11.768;2023-03-01T04:18:52;-1.79;75.59
69543;SHT31;56762;49.494;11.768;2023-03-01T04:21:21;-1.75;75.32
69543;SHT31;56762;49.494;11.768;2023-03-01T04:23:50;-1.79;75.10
69543;SHT31;56762;49.494;11.768;2023-03-01T04:26:19;-1.79;75.69
69543;SHT31;56762;49.494;11.768;2023-03-01T04:28:47;-1.86;75.34
69543;SHT31;56762;49.494;11.768;2023-03-01T04:31:18;-1.90;75.61
69543;SHT31;56762;49.494;11.768;2023-03-01T04:33:49;-1.96;75.66
69543;SHT31;56762;49.494;11.768;2023-03-01T04:36:20;-1.95;75.99
69543;SHT31;56762;49.494;11.768;2023-03-01T04:38:50;-1.96;75.85
69543;SHT31;56762;49.494;11.768;2023-03-01T04:41:20;-1.90;76.61
69543;SHT31;56762;49.494;11.768;2023-03-01T04:43:48;-1.95;75.56
69543;SHT31;56762;49.494;11.768;2023-03-01T04:46:18;-1.93;75.98
69543;SHT31;56762;49.494;11.768;2023-03-01T04:48:47;-1.87;75.82
69543;SHT31;56762;49.494;11.768;2023-03-01T04:51:15;-1.85;75.46
69543;SHT31;56762;49.494;11.768;2023-03-01T04:53:45;-1.83;75.81
69543;SHT31;56762;49.494;11.768;2023-03-01T04:56:14;-1.90;75.66
69543;SHT31;56762;49.494;11.768;2023-03-01T04:58:45;-1.89;75.69
69543;SHT31;56762;49.494;11.768;2023-03-01T05:01:15;-1.92;75.84
69543;SHT31;56762;49.494;11.768;2023-03-01T05:03:44;-1.90;75.29
69543;SHT31;56762;49.494;11.768;2023-03-01T05:06:12;-1.89;75.47
69543;SHT31;56762;49.494;11.768;2023-03-01T05:08:41;-1.90;75.47
69543;SHT31;56762;49.494;11.768;2023-03-01T05:11:10;-1.89;75.81
69543;SHT31;56762;49.494;11.768;2023-03-01T05:13:40;-1.89;75.10
69543;SHT31;56762;49.494;11.768;2023-03-01T05:16:09;-1.96;75.47
69543;SHT31;56762;49.494;11.768;2023-03-01T05:18:39;-2.03;75.86
69543;SHT31;56762;49.494;11.768;2023-03-01T05:21:10;-2.05;76.07
69543;SHT31;56762;49.494;11.768;2023-03-01T05:23:38;-1.99;75.68
69543;SHT31;56762;49.494;11.768;2023-03-01T05:26:08;-2.02;75.52
69543;SHT31;56762;49.494;11.768;2023-03-01T05:28:54;-2.13;76.34
69543;SHT31;56762;49.494;11.768;2023-03-01T05:31:26;-2.11;76.08
69543;SHT31;56762;49.494;11.768;2023-03-01T05:33:54;-2.10;76.02
69543;SHT31;56762;49.494;11.768;2023-03-01T05:36:22;-2.13;76.28
69543;SHT31;56762;49.494;11.768;2023-03-01T05:38:50;-2.16;76.48
69543;SHT31;56762;49.494;11.768;2023-03-01T05:41:18;-2.22;76.40
69543;SHT31;56762;49.494;11.768;2023-03-01T05:43:46;-2.33;76.11
69543;SHT31;56762;49.494;11.768;2023-03-01T05:46:15;-2.30;77.10
69543;SHT31;56762;49.494;11.768;2023-03-01T05:48:43;-2.29;77.22
69543;SHT31;56762;49.494;11.768;2023-03-01T05:51:12;-2.14;76.69
69543;SHT31;56762;49.494;11.768;2023-03-01T05:53:39;-2.19;76.16
69543;SHT31;56762;49.494;11.768;2023-03-01T05:56:08;-2.29;76.31
69543;SHT31;56762;49.494;11.768;2023-03-01T05:58:35;-2.27;76.80
69543;SHT31;56762;49.494;11.768;2023-03-01T06:01:05;-2.20;76.61
69543;SHT31;56762;49.494;11.768;2023-03-01T06:03:34;-2.10;76.32
69543;SHT31;56762;49.494;11.768;2023-03-01T06:06:02;-2.10;75.84
69543;SHT31;56762;49.494;11.768;2023-03-01T06:08:30;-2.11;76.34
69543;SHT31;56762;49.494;11.768;2023-03-01T06:10:58;-2.09;76.11
69543;SHT31;56762;49.494;11.768;2023-03-01T06:13:26;-2.02;75.81
69543;SHT31;56762;49.494;11.768;2023-03-01T06:15:54;-2.03;76.28
69543;SHT31;56762;49.494;11.768;2023-03-01T06:18:22;-2.11;76.24
69543;SHT31;56762;49.494;11.768;2023-03-01T06:20:54;-2.05;77.18
69543;SHT31;56762;49.494;11.768;2023-03-01T06:23:22;-0.68;81.56
69543;SHT31;56762;49.494;11.768;2023-03-01T06:25:50;0.46;76.72
69543;SHT31;56762;49.494;11.768;2023-03-01T06:28:18;1.20;73.42
69543;SHT31;56762;49.494;11.768;2023-03-01T06:30:46;1.94;69.94
69543;SHT31;56762;49.494;11.768;2023-03-01T06:33:14;2.45;67.52
69543;SHT31;56762;49.494;11.768;2023-03-01T06:35:42;2.19;62.51
69543;SHT31;56762;49.494;11.768;2023-03-01T06:38:11;1.36;63.29
69543;SHT31;56762;49.494;11.768;2023-03-01T06:40:41;0.74;65.96
69543;SHT31;56762;49.494;11.768;2023-03-01T06:43:09;0.14;67.41
69543;SHT31;56762;49.494;11.768;2023-03-01T06:45:37;-0.25;68.94
69543;SHT31;56762;49.494;11.768;2023-03-01T06:48:05;-0.49;70.51
69543;SHT31;56762;49.494;11.768;2023-03-01T06:50:36;-0.68;71.16
69543;SHT31;56762;49.494;11.768;2023-03-01T06:53:04;-0.83;71.53
69543;SHT31;56762;49.494;11.768;2023-03-01T06:55:34;-0.87;71.62
69543;SHT31;56762;49.494;11.768;2023-03-01T06:58:03;-0.90;71.77
69543;SHT31;56762;49.494;11.768;2023-03-01T07:00:32;-0.94;72.86
69543;SHT31;56762;49.494;11.768;2023-03-01T07:03:00;-0.92;71.80
69543;SHT31;56762;49.494;11.768;2023-03-01T07:05:29;-0.97;71.72
69543;SHT31;56762;49.494;11.768;2023-03-01T07:07:57;-0.86;72.26
69543;SHT31;56762;49.494;11.768;2023-03-01T07:10:26;-0.90;72.28
69543;SHT31;56762;49.494;11.768;2023-03-01T07:12:56;-0.87;71.88
69543;SHT31;56762;49.494;11.768;2023-03-01T07:15:24;-0.86;72.52
69543;SHT31;56762;49.494;11.768;2023-03-01T07:17:52;-0.89;71.89
69543;SHT31;56762;49.494;11.768;2023-03-01T07:20:20;-0.93;72.03
69543;SHT31;56762;49.494;11.768;2023-03-01T07:22:51;-0.93;72.61
69543;SHT31;56762;49.494;11.768;2023-03-01T07:25:19;-0.83;72.58
69543;SHT31;56762;49.494;11.768;2023-03-01T07:27:49;-0.86;72.22
69543;SHT31;56762;49.494;11.768;2023-03-01T07:30:19;-0.86;72.66
69543;SHT31;56762;49.494;11.768;2023-03-01T07:32:46;-0.80;71.90
69543;SHT31;56762;49.494;11.768;2023-03-01T07:35:15;-0.73;71.79
69543;SHT31;56762;49.494;11.768;2023-03-01T07:37:43;-0.62;70.86
69543;SHT31;56762;49.494;11.768;2023-03-01T07:40:12;-0.62;71.48
69543;SHT31;56762;49.494;11.768;2023-03-01T07:42:40;-0.51;71.04
69543;SHT31;56762;49.494;11.768;2023-03-01T07:45:08;-0.48;71.36
69543;SHT31;56762;49.494;11.768;2023-03-01T07:47:37;-0.51;71.19
69543;SHT31;56762;49.494;11.768;2023-03-01T07:50:06;-0.45;70.96
69543;SHT31;56762;49.494;11.768;2023-03-01T07:52:34;-0.38;71.07
69543;SHT31;56762;49.494;11.768;2023-03-01T07:55:02;-0.32;70.71
69543;SHT31;56762;49.494;11.768;2023-03-01T07:57:30;-0.28;70.15
69543;SHT31;56762;49.494;11.768;2023-03-01T07:59:58;-0.22;71.06
69543;SHT31;56762;49.494;11.768;2023-03-01T08:02:26;-0.14;71.39
69543;SHT31;56762;49.494;11.768;2023-03-01T08:04:55;-0.11;70.79
69543;SHT31;56762;49.494;11.768;2023-03-01T08:07:23;-0.05;70.72
69543;SHT31;56762;49.494;11.768;2023-03-01T08:09:51;0.03;70.66
69543;SHT31;56762;49.494;11.768;2023-03-01T08:12:19;0.06;69.89
69543;SHT31;56762;49.494;11.768;2023-03-01T08:14:47;0.13;70.08
69543;SHT31;56762;49.494;11.768;2023-03-01T08:17:15;0.34;68.64
69543;SHT31;56762;49.494;11.768;2023-03-01T08:19:43;0.27;69.13
69543;SHT31;56762;49.494;11.768;2023-03-01T08:22:12;0.38;69.10
69543;SHT31;56762;49.494;11.768;2023-03-01T08:24:42;0.46;69.11
69543;SHT31;56762;49.494;11.768;2023-03-01T08:27:10;0.53;68.62
69543;SHT31;56762;49.494;11.768;2023-03-01T08:29:39;0.56;67.77
69543;SHT31;56762;49.494;11.768;2023-03-01T08:32:06;0.68;69.06
69543;SHT31;56762;49.494;11.768;2023-03-01T08:34:36;0.79;68.72
69543;SHT31;56762;49.494;11.768;2023-03-01T08:37:03;0.81;68.32
69543;SHT31;56762;49.494;11.768;2023-03-01T08:39:33;0.87;67.12
69543;SHT31;56762;49.494;11.768;2023-03-01T08:42:01;0.87;66.64
69543;SHT31;56762;49.494;11.768;2023-03-01T08:44:28;0.92;67.24
69543;SHT31;56762;49.494;11.768;2023-03-01T08:46:56;0.95;66.27
69543;SHT31;56762;49.494;11.768;2023-03-01T08:49:24;1.08;66.20
69543;SHT31;56762;49.494;11.768;2023-03-01T08:51:53;1.06;66.50
69543;SHT31;56762;49.494;11.768;2023-03-01T08:54:21;1.12;66.47
69543;SHT31;56762;49.494;11.768;2023-03-01T08:56:51;1.19;66.56
69543;SHT31;56762;49.494;11.768;2023-03-01T08:59:18;1.26;66.07
69543;SHT31;56762;49.494;11.768;2023-03-01T09:01:46;1.23;66.33
69543;SHT31;56762;49.494;11.768;2023-03-01T09:04:14;1.26;66.34
69543;SHT31;56762;49.494;11.768;2023-03-01T09:06:42;1.42;66.68
69543;SHT31;56762;49.494;11.768;2023-03-01T09:09:14;1.47;65.34
69543;SHT31;56762;49.494;11.768;2023-03-01T09:11:42;1.54;65.59
69543;SHT31;56762;49.494;11.768;2023-03-01T09:14:14;1.56;64.96
69543;SHT31;56762;49.494;11.768;2023-03-01T09:16:41;1.60;64.62
69543;SHT31;56762;49.494;11.768;2023-03-01T09:19:09;1.66;65.03
69543;SHT31;56762;49.494;11.768;2023-03-01T09:21:37;1.71;64.36
69543;SHT31;56762;49.494;11.768;2023-03-01T09:24:11;1.74;63.25
69543;SHT31;56762;49.494;11.768;2023-03-01T09:26:39;1.84;64.06
69543;SHT31;56762;49.494;11.768;2023-03-01T09:29:07;1.94;64.16
69543;SHT31;56762;49.494;11.768;2023-03-01T09:31:38;1.98;63.32
69543;SHT31;56762;49.494;11.768;2023-03-01T09:34:06;1.94;62.85
69543;SHT31;56762;49.494;11.768;2023-03-01T09:36:35;1.98;62.56
69543;SHT31;56762;49.494;11.768;2023-03-01T09:39:04;2.04;62.91
69543;SHT31;56762;49.494;11.768;2023-03-01T09:41:43;2.14;62.85
69543;SHT31;56762;49.494;11.768;2023-03-01T09:44:20;2.26;62.77
69543;SHT31;56762;49.494;11.768;2023-03-01T09:46:50;2.35;63.25
69543;SHT31;56762;49.494;11.768;2023-03-01T09:49:20;2.46;60.96
69543;SHT31;56762;49.494;11.768;2023-03-01T09:51:55;2.48;60.78
69543;SHT31;56762;49.494;11.768;2023-03-01T09:54:24;2.57;61.87
69543;SHT31;56762;49.494;11.768;2023-03-01T09:56:59;2.57;60.15
69543;SHT31;56762;49.494;11.768;2023-03-01T09:59:36;2.67;60.99
69543;SHT31;56762;49.494;11.768;2023-03-01T10:02:23;2.73;60.08
69543;SHT31;56762;49.494;11.768;2023-03-01T10:04:54;2.79;61.04
69543;SHT31;56762;49.494;11.768;2023-03-01T10:07:30;2.81;60.31
69543;SHT31;56762;49.494;11.768;2023-03-01T10:10:00;2.81;60.17
69543;SHT31;56762;49.494;11.768;2023-03-01T10:12:35;2.89;59.80
69543;SHT31;56762;49.494;11.768;2023-03-01T10:15:07;2.94;59.11
69543;SHT31;56762;49.494;11.768;2023-03-01T10:17:41;3.04;59.60
69543;SHT31;56762;49.494;11.768;2023-03-01T10:20:18;3.08;58.59
69543;SHT31;56762;49.494;11.768;2023-03-01T10:22:46;3.07;59.20
69543;SHT31;56762;49.494;11.768;2023-03-01T10:25:27;3.17;57.96
69543;SHT31;56762;49.494;11.768;2023-03-01T10:28:02;3.20;58.22
69543;SHT31;56762;49.494;11.768;2023-03-01T10:30:35;3.27;57.99
69543;SHT31;56762;49.494;11.768;2023-03-01T10:33:14;3.32;57.59
69543;SHT31;56762;49.494;11.768;2023-03-01T10:35:42;3.41;57.01
69543;SHT31;56762;49.494;11.768;2023-03-01T10:38:12;3.49;57.32
69543;SHT31;56762;49.494;11.768;2023-03-01T10:40:52;3.48;56.95
69543;SHT31;56762;49.494;11.768;2023-03-01T10:43:21;3.55;57.31
69543;SHT31;56762;49.494;11.768;2023-03-01T10:45:50;3.62;56.44
69543;SHT31;56762;49.494;11.768;2023-03-01T10:48:23;3.66;57.18
69543;SHT31;56762;49.494;11.768;2023-03-01T10:51:05;3.76;56.32
69543;SHT31;56762;49.494;11.768;2023-03-01T10:53:34;3.79;56.95
69543;SHT31;56762;49.494;11.768;2023-03-01T10:56:05;3.82;57.49
69543;SHT31;56762;49.494;11.768;2023-03-01T10:58:35;3.89;57.86
69543;SHT31;56762;49.494;11.768;2023-03-01T11:01:04;4.03;56.41
69543;SHT31;56762;49.494;11.768;2023-03-01T11:03:35;4.09;57.28
69543;SHT31;56762;49.494;11.768;2023-03-01T11:06:21;4.25;56.90
69543;SHT31;56762;49.494;11.768;2023-03-01T11:08:49;4.44;55.77
69543;SHT31;56762;49.494;11.768;2023-03-01T11:11:24;4.62;56.06
69543;SHT31;56762;49.494;11.768;2023-03-01T11:13:55;4.71;55.60
69543;SHT31;56762;49.494;11.768;2023-03-01T11:16:29;4.64;55.90
69543;SHT31;56762;49.494;11.768;2023-03-01T11:19:13;4.44;56.63
69543;SHT31;56762;49.494;11.768;2023-03-01T11:21:46;4.52;57.05
69543;SHT31;56762;49.494;11.768;2023-03-01T11:24:17;4.58;57.10
69543;SHT31;56762;49.494;11.768;2023-03-01T11:26:51;4.44;55.97
69543;SHT31;56762;49.494;11.768;2023-03-01T11:29:26;4.48;56.87
69543;SHT31;56762;49.494;11.768;2023-03-01T11:32:07;4.47;57.51
69543;SHT31;56762;49.494;11.768;2023-03-01T11:34:43;4.58;57.48
69543;SHT31;56762;49.494;11.768;2023-03-01T11:37:16;4.58;57.63
69543;SHT31;56762;49.494;11.768;2023-03-01T11:39:54;4.52;56.80
69543;SHT31;56762;49.494;11.768;2023-03-01T11:42:40;4.60;57.38
69543;SHT31;56762;49.494;11.768;2023-03-01T11:45:11;4.64;57.20
69543;SHT31;56762;49.494;11.768;2023-03-01T11:47:58;4.69;57.55
69543;SHT31;56762;49.494;11.768;2023-03-01T11:50:37;4.75;57.62
69543;SHT31;56762;49.494;11.768;2023-03-01T11:53:26;4.76;57.17
69543;SHT31;56762;49.494;11.768;2023-03-01T11:56:03;4.83;57.27
69543;SHT31;56762;49.494;11.768;2023-03-01T11:58:54;4.83;56.77
69543;SHT31;56762;49.494;11.768;2023-03-01T12:01:48;5.00;57.50
69543;SHT31;56762;49.494;11.768;2023-03-01T12:04:32;5.05;57.60
69543;SHT31;56762;49.494;11.768;2023-03-01T12:07:05;5.12;57.30
69543;SHT31;56762;49.494;11.768;2023-03-01T12:09:47;5.05;56.94
69543;SHT31;56762;49.494;11.768;2023-03-01T12:12:26;5.06;58.35
69543;SHT31;56762;49.494;11.768;2023-03-01T12:15:19;5.16;58.10
69543;SHT31;56762;49.494;11.768;2023-03-01T12:18:13;5.29;58.40
69543;SHT31;56762;49.494;11.768;2023-03-01T12:20:47;5.42;57.19
69543;SHT31;56762;49.494;11.768;2023-03-01T12:26:20;5.33;57.30
69543;SHT31;56762;49.494;11.768;2023-03-01T12:29:01;5.42;57.27
69543;SHT31;56762;49.494;11.768;2023-03-01T12:31:44;5.44;57.36
69543;SHT31;56762;49.494;11.768;2023-03-01T12:34:29;5.43;57.50
69543;SHT31;56762;49.494;11.768;2023-03-01T12:37:13;5.42;57.90
69543;SHT31;56762;49.494;11.768;2023-03-01T12:39:55;5.53;57.64
69543;SHT31;56762;49.494;11.768;2023-03-01T12:42:31;5.57;58.44
69543;SHT31;56762;49.494;11.768;2023-03-01T12:45:16;5.63;57.75
69543;SHT31;56762;49.494;11.768;2023-03-01T12:48:01;5.58;57.57
69543;SHT31;56762;49.494;11.768;2023-03-01T12:50:38;5.58;57.02
69543;SHT31;56762;49.494;11.768;2023-03-01T12:53:20;5.54;57.34
69543;SHT31;56762;49.494;11.768;2023-03-01T12:55:52;5.60;57.45
69543;SHT31;56762;49.494;11.768;2023-03-01T12:58:28;5.68;57.69
69543;SHT31;56762;49.494;11.768;2023-03-01T13:01:21;5.71;57.21
69543;SHT31;56762;49.494;11.768;2023-03-01T13:04:02;5.75;57.18
69543;SHT31;56762;49.494;11.768;2023-03-01T13:06:40;5.78;56.69
69543;SHT31;56762;49.494;11.768;2023-03-01T13:09:17;5.85;56.71
69543;SHT31;56762;49.494;11.768;2023-03-01T13:11:47;5.87;57.67
69543;SHT31;56762;49.494;11.768;2023-03-01T13:14:39;5.87;57.47
69543;SHT31;56762;49.494;11.768;2023-03-01T13:17:32;5.92;57.18
69543;SHT31;56762;49.494;11.768;2023-03-01T13:20:00;5.97;56.10
69543;SHT31;56762;49.494;11.768;2023-03-01T13:22:32;6.01;56.52
69543;SHT31;56762;49.494;11.768;2023-03-01T13:25:16;5.98;57.23
69543;SHT31;56762;49.494;11.768;2023-03-01T13:27:46;5.99;56.85
69543;SHT31;56762;49.494;11.768;2023-03-01T13:30:39;5.87;56.53
69543;SHT31;56762;49.494;11.768;2023-03-01T13:33:41;5.85;57.07
69543;SHT31;56762;49.494;11.768;2023-03-01T13:39:31;5.85;56.84
69543;SHT31;56762;49.494;11.768;2023-03-01T13:42:00;5.84;57.72
69543;SHT31;56762;49.494;11.768;2023-03-01T13:44:32;5.85;57.38
69543;SHT31;56762;49.494;11.768;2023-03-01T13:47:12;5.79;57.58
69543;SHT31;56762;49.494;11.768;2023-03-01T13:49:43;5.94;57.92
69543;SHT31;56762;49.494;11.768;2023-03-01T13:52:32;5.91;57.85
69543;SHT31;56762;49.494;11.768;2023-03-01T13:55:03;5.95;57.43
69543;SHT31;56762;49.494;11.768;2023-03-01T13:57:34;5.97;57.46
69543;SHT31;56762;49.494;11.768;2023-03-01T14:00:25;5.94;57.21
69543;SHT31;56762;49.494;11.768;2023-03-01T14:03:14;5.95;57.15
69543;SHT31;56762;49.494;11.768;2023-03-01T14:05:43;5.92;57.87
69543;SHT31;56762;49.494;11.768;2023-03-01T14:08:21;5.92;58.22
69543;SHT31;56762;49.494;11.768;2023-03-01T14:10:58;5.98;57.83
69543;SHT31;56762;49.494;11.768;2023-03-01T14:13:39;5.92;57.73
69543;SHT31;56762;49.494;11.768;2023-03-01T14:16:24;5.90;57.66
69543;SHT31;56762;49.494;11.768;2023-03-01T14:19:06;5.88;58.21
69543;SHT31;56762;49.494;11.768;2023-03-01T14:21:39;6.01;57.78
69543;SHT31;56762;49.494;11.768;2023-03-01T14:24:16;5.99;57.56
69543;SHT31;56762;49.494;11.768;2023-03-01T14:26:44;5.99;58.04
69543;SHT31;56762;49.494;11.768;2023-03-01T14:29:26;5.98;58.20
69543;SHT31;56762;49.494;11.768;2023-03-01T14:32:08;5.99;57.50
69543;SHT31;56762;49.494;11.768;2023-03-01T14:34:43;5.94;57.28
69543;SHT31;56762;49.494;11.768;2023-03-01T14:37:16;5.98;57.98
69543;SHT31;56762;49.494;11.768;2023-03-01T14:39:45;5.94;57.99
69543;SHT31;56762;49.494;11.768;2023-03-01T14:42:14;5.92;57.68
69543;SHT31;56762;49.494;11.768;2023-03-01T14:44:45;5.94;58.25
69543;SHT31;56762;49.494;11.768;2023-03-01T14:47:26;5.98;57.89
69543;SHT31;56762;49.494;11.768;2023-03-01T14:49:58;5.97;57.65
69543;SHT31;56762;49.494;11.768;2023-03-01T14:52:33;6.01;57.58
69543;SHT31;56762;49.494;11.768;2023-03-01T14:55:05;5.92;58.01
69543;SHT31;56762;49.494;11.768;2023-03-01T14:57:33;5.84;57.50
69543;SHT31;56762;49.494;11.768;2023-03-01T15:00:03;5.82;58.67
69543;SHT31;56762;49.494;11.768;2023-03-01T15:02:35;5.82;58.56
69543;SHT31;56762;49.494;11.768;2023-03-01T15:05:04;5.79;58.11
69543;SHT31;56762;49.494;11.768;2023-03-01T15:07:38;5.74;58.36
69543;SHT31;56762;49.494;11.768;2023-03-01T15:10:17;5.75;58.30
69543;SHT31;56762;49.494;11.768;2023-03-01T15:12:46;5.68;58.83
69543;SHT31;56762;49.494;11.768;2023-03-01T15:15:36;5.79;58.87
69543;SHT31;56762;49.494;11.768;2023-03-01T15:18:14;5.74;58.38
69543;SHT31;56762;49.494;11.768;2023-03-01T15:20:43;5.71;58.23
69543;SHT31;56762;49.494;11.768;2023-03-01T15:23:25;5.68;58.51
69543;SHT31;56762;49.494;11.768;2023-03-01T15:25:54;5.64;58.71
69543;SHT31;56762;49.494;11.768;2023-03-01T15:28:25;5.54;59.15
69543;SHT31;56762;49.494;11.768;2023-03-01T15:31:00;5.54;59.31
69543;SHT31;56762;49.494;11.768;2023-03-01T15:33:33;5.53;58.82
69543;SHT31;56762;49.494;11.768;2023-03-01T15:36:03;5.47;59.24
69543;SHT31;56762;49.494;11.768;2023-03-01T15:38:36;5.57;58.85
69543;SHT31;56762;49.494;11.768;2023-03-01T15:41:22;5.47;59.42
69543;SHT31;56762;49.494;11.768;2023-03-01T15:43:52;5.43;60.03
69543;SHT31;56762;49.494;11.768;2023-03-01T15:46:25;5.36;59.99
69543;SHT31;56762;49.494;11.768;2023-03-01T15:48:57;5.37;59.28
69543;SHT31;56762;49.494;11.768;2023-03-01T15:51:30;5.36;59.72
69543;SHT31;56762;49.494;11.768;2023-03-01T15:54:01;5.27;59.83
69543;SHT31;56762;49.494;11.768;2023-03-01T15:56:29;5.24;59.89
69543;SHT31;56762;49.494;11.768;2023-03-01T15:59:00;5.29;59.90